createdAt,value
2019-04-11T00:03:06.593Z,57.47
2019-04-11T00:05:32.815Z,57.47
2019-04-11T00:07:59.727Z,57.54
2019-04-11T00:10:26.490Z,57.58
2019-04-11T00:12:52.722Z,57.59
2019-04-11T00:15:18.769Z,57.44
2019-04-11T00:17:46.002Z,57.26
2019-04-11T00:20:12.350Z,57.53
2019-04-11T00:22:38.543Z,57.32
2019-04-11T00:25:04.839Z,57.38
2019-04-11T00:27:30.887Z,57.12
2019-04-11T00:29:57.029Z,57.33
2019-04-11T00:32:23.302Z,57.23
2019-04-11T00:34:49.516Z,57.15
2019-04-11T00:37:16.890Z,57.16
2019-04-11T00:39:43.742Z,57.30
2019-04-11T00:42:10.331Z,57.39
2019-04-11T00:44:36.560Z,57.17
2019-04-11T00:47:02.714Z,57.32
2019-04-11T00:49:28.865Z,57.38
2019-04-11T00:51:56.134Z,57.36
2019-04-11T00:54:22.675Z,57.18
2019-04-11T00:56:48.956Z,57.33
2019-04-11T00:59:15.984Z,57.21
2019-04-11T01:01:43.006Z,57.33
2019-04-11T01:04:09.676Z,57.39
2019-04-11T01:06:36.523Z,57.41
2019-04-11T01:09:04.845Z,57.58
2019-04-11T01:11:32.022Z,57.67
2019-04-11T01:13:59.406Z,57.40
2019-04-11T01:19:07.240Z,57.90
2019-04-11T01:21:34.815Z,57.56
2019-04-11T01:24:01.718Z,58.07
2019-04-11T01:26:28.269Z,58.05
2019-04-11T01:28:55.383Z,57.94
2019-04-11T01:31:23.495Z,58.02
2019-04-11T01:33:49.739Z,58.11
2019-04-11T01:36:15.848Z,58.11
2019-04-11T01:41:29.001Z,57.84
2019-04-11T01:44:00.956Z,57.70
2019-04-11T01:46:24.320Z,57.64
2019-04-11T01:48:55.686Z,57.65
2019-04-11T01:51:21.805Z,57.52
2019-04-11T01:53:48.893Z,57.51
2019-04-11T01:56:15.150Z,57.77
2019-04-11T01:58:41.288Z,58.01
2019-04-11T02:01:09.401Z,57.85
2019-04-11T02:03:49.746Z,57.74
2019-04-11T02:06:16.432Z,57.98
2019-04-11T02:08:43.775Z,57.84
2019-04-11T02:11:10.117Z,57.70
2019-04-11T02:13:36.359Z,57.76
2019-04-11T02:16:02.978Z,57.74
2019-04-11T02:18:29.728Z,57.79
2019-04-11T02:20:55.913Z,58.19
2019-04-11T02:28:55.420Z,57.98
2019-04-11T02:31:22.928Z,57.86
2019-04-11T02:33:51.079Z,57.95
2019-04-11T02:36:18.791Z,58.17
2019-04-11T02:38:48.952Z,58.01
2019-04-11T02:41:14.208Z,57.94
2019-04-11T02:43:42.772Z,57.94
2019-04-11T02:46:17.239Z,58.05
2019-04-11T02:48:37.658Z,58.03
2019-04-11T02:51:05.706Z,57.82
2019-04-11T02:53:34.164Z,57.70
2019-04-11T02:56:01.137Z,57.94
2019-04-11T02:58:30.273Z,58.14
2019-04-11T03:00:59.393Z,58.19
2019-04-11T03:03:25.286Z,58.24
2019-04-11T03:05:53.287Z,58.86
2019-04-11T03:08:21.978Z,58.83
2019-04-11T03:10:49.224Z,58.70
2019-04-11T03:13:16.850Z,59.18
2019-04-11T03:16:00.471Z,59.89
2019-04-11T03:18:18.547Z,59.91
2019-04-11T03:20:47.783Z,60.08
2019-04-11T03:23:10.137Z,59.94
2019-04-11T03:25:36.386Z,60.08
2019-04-11T03:28:02.904Z,60.11
2019-04-11T03:30:51.781Z,60.12
2019-04-11T03:38:21.218Z,59.56
2019-04-11T03:40:36.165Z,59.34
2019-04-11T03:43:01.359Z,59.20
2019-04-11T03:45:36.407Z,59.28
2019-04-11T03:48:03.737Z,59.49
2019-04-11T03:50:18.817Z,59.67
2019-04-11T03:52:43.020Z,59.67
2019-04-11T03:55:11.075Z,59.61
2019-04-11T03:57:39.392Z,59.30
2019-04-11T04:00:06.555Z,59.20
2019-04-11T04:02:34.691Z,59.45
2019-04-11T04:05:01.552Z,59.41
2019-04-11T04:07:29.572Z,59.22
2019-04-11T04:09:56.234Z,59.26
2019-04-11T04:12:22.721Z,59.58
2019-04-11T04:17:36.175Z,60.31
2019-04-11T04:20:12.899Z,60.61
2019-04-11T04:22:42.081Z,60.53
2019-04-11T04:25:10.316Z,60.99
2019-04-11T04:27:36.591Z,60.99
2019-04-11T04:30:05.905Z,61.09
2019-04-11T04:32:32.975Z,61.21
2019-04-11T04:35:01.111Z,61.55
2019-04-11T04:37:29.449Z,61.45
2019-04-11T04:40:16.304Z,61.65
2019-04-11T04:42:31.466Z,61.65
2019-04-11T04:44:53.701Z,61.69
2019-04-11T04:47:25.085Z,61.47
2019-04-11T04:49:48.677Z,61.13
2019-04-11T04:52:16.302Z,61.26
2019-04-11T04:54:44.322Z,61.43
2019-04-11T04:57:13.010Z,61.33
2019-04-11T04:59:40.652Z,61.31
2019-04-11T05:02:08.196Z,61.73
2019-04-11T05:04:36.058Z,61.91
2019-04-11T05:07:03.265Z,62.05
2019-04-11T05:09:29.863Z,62.99
2019-04-11T05:11:56.115Z,63.36
2019-04-11T05:14:23.337Z,63.19
2019-04-11T05:16:50.475Z,62.86
2019-04-11T05:19:17.017Z,62.60
2019-04-11T05:21:43.637Z,62.71
2019-04-11T05:24:10.343Z,63.13
2019-04-11T05:26:36.878Z,63.53
2019-04-11T05:29:03.047Z,63.56
2019-04-11T05:31:30.115Z,63.36
2019-04-11T05:33:56.514Z,63.27
2019-04-11T05:36:22.793Z,63.12
2019-04-11T05:38:48.965Z,63.08
2019-04-11T05:41:15.384Z,63.20
2019-04-11T05:43:41.856Z,63.37
2019-04-11T05:46:23.998Z,63.08
2019-04-11T05:48:47.232Z,63.06
2019-04-11T05:51:13.428Z,62.95
2019-04-11T05:53:39.658Z,63.13
2019-04-11T05:56:07.103Z,63.58
2019-04-11T05:58:34.908Z,64.05
2019-04-11T06:01:05.578Z,64.12
2019-04-11T06:03:32.353Z,64.04
2019-04-11T06:06:18.472Z,64.43
2019-04-11T06:08:44.680Z,64.18
2019-04-11T06:11:16.482Z,63.94
2019-04-11T06:16:36.072Z,63.73
2019-04-11T06:18:54.366Z,63.43
2019-04-11T06:24:20.224Z,64.13
2019-04-11T06:32:40.926Z,65.02
2019-04-11T06:40:46.087Z,65.98
2019-04-11T06:43:14.190Z,66.11
2019-04-11T06:45:46.129Z,66.06
2019-04-11T06:48:17.829Z,66.20
2019-04-11T06:53:38.465Z,66.75
2019-04-11T06:56:18.950Z,66.65
2019-04-11T06:58:54.118Z,66.00
2019-04-11T07:01:23.221Z,65.74
2019-04-11T07:03:51.261Z,65.79
2019-04-11T07:06:19.586Z,66.16
2019-04-11T07:11:40.670Z,66.48
2019-04-11T07:17:15.478Z,66.49
2019-04-11T07:19:46.558Z,66.06
2019-04-11T07:22:32.671Z,66.73
2019-04-11T07:25:18.121Z,67.13
2019-04-11T07:28:03.698Z,67.20
2019-04-11T07:30:49.494Z,67.19
2019-04-11T07:36:34.057Z,67.73
2019-04-11T07:39:20.214Z,67.79
2019-04-11T07:41:52.091Z,67.87
2019-04-11T07:44:20.406Z,68.13
2019-04-11T07:47:13.609Z,68.22
2019-04-11T07:49:47.252Z,67.81
2019-04-11T07:52:17.855Z,68.79
2019-04-11T07:54:43.891Z,68.16
2019-04-11T07:57:12.926Z,68.85
2019-04-11T08:08:41.212Z,68.19
2019-04-11T08:11:09.583Z,68.09
2019-04-11T08:16:31.400Z,68.55
2019-04-11T08:19:03.620Z,68.76
2019-04-11T08:21:48.601Z,69.53
2019-04-11T08:24:22.518Z,69.55
2019-04-11T08:29:30.549Z,69.15
2019-04-11T08:32:04.683Z,69.39
2019-04-11T08:34:32.705Z,69.50
2019-04-11T08:37:17.262Z,69.60
2019-04-11T08:39:43.389Z,69.71
2019-04-11T08:42:21.334Z,70.01
2019-04-11T08:44:48.046Z,70.11
2019-04-11T08:47:14.241Z,69.97
2019-04-11T08:49:42.176Z,70.00
2019-04-11T08:52:10.246Z,69.73
2019-04-11T08:54:55.698Z,70.45
2019-04-11T08:57:29.745Z,70.11
2019-04-11T09:00:02.098Z,70.48
2019-04-11T09:02:31.057Z,70.24
2019-04-11T09:05:07.050Z,70.31
2019-04-11T09:07:29.655Z,70.24
2019-04-11T09:12:44.809Z,69.80
2019-04-11T09:15:29.686Z,69.73
2019-04-11T09:18:04.207Z,69.43
2019-04-11T09:20:29.829Z,69.28
2019-04-11T09:22:57.829Z,68.95
2019-04-11T09:25:43.493Z,68.94
2019-04-11T09:28:15.380Z,69.03
2019-04-11T09:31:01.063Z,69.32
2019-04-11T09:33:47.050Z,69.37
2019-04-11T09:39:28.864Z,69.44
2019-04-11T09:42:11.906Z,69.17
2019-04-11T09:44:49.157Z,69.19
2019-04-11T09:47:34.128Z,69.22
2019-04-11T09:50:18.878Z,68.90
2019-04-11T09:52:50.000Z,68.68
2019-04-11T09:55:34.555Z,68.85
2019-04-11T09:58:01.684Z,69.11
2019-04-11T10:00:47.437Z,68.88
2019-04-11T10:03:21.366Z,68.52
2019-04-11T10:05:50.281Z,68.73
2019-04-11T10:08:28.166Z,68.93
2019-04-11T10:13:59.455Z,68.83
2019-04-11T10:16:28.372Z,68.52
2019-04-11T10:18:57.694Z,68.54
2019-04-11T10:21:25.930Z,68.48
2019-04-11T10:24:11.718Z,68.98
2019-04-11T10:26:44.442Z,68.99
2019-04-11T10:29:30.427Z,68.37
2019-04-11T10:31:57.439Z,68.15
2019-04-11T10:37:20.746Z,68.15
2019-04-11T10:39:51.786Z,68.20
2019-04-11T10:42:18.158Z,68.17
2019-04-11T10:45:02.829Z,68.05
2019-04-11T10:50:15.370Z,68.24
2019-04-11T10:52:44.605Z,68.46
2019-04-11T10:55:15.663Z,68.98
2019-04-11T10:57:46.680Z,69.39
2019-04-11T11:00:15.670Z,68.80
2019-04-11T11:03:00.559Z,68.97
2019-04-11T11:05:28.602Z,69.15
2019-04-11T11:07:57.171Z,68.95
2019-04-11T11:10:25.779Z,69.10
2019-04-11T11:12:54.004Z,69.46
2019-04-11T11:15:23.292Z,69.17
2019-04-11T11:18:27.172Z,69.09
2019-04-11T11:20:38.585Z,69.43
2019-04-11T11:23:07.741Z,69.49
2019-04-11T11:25:33.034Z,69.29
2019-04-11T11:28:00.233Z,69.36
2019-04-11T11:30:37.840Z,69.84
2019-04-11T11:33:05.602Z,70.19
2019-04-11T11:38:26.639Z,70.41
2019-04-11T11:41:03.902Z,70.45
2019-04-11T11:43:32.863Z,70.41
2019-04-11T11:46:19.366Z,70.24
2019-04-11T11:51:33.801Z,70.15
2019-04-11T11:54:11.500Z,70.96
2019-04-11T11:56:40.235Z,70.66
2019-04-11T11:59:25.175Z,70.92
2019-04-11T12:04:50.208Z,70.97
2019-04-11T12:10:17.896Z,71.80
2019-04-11T12:12:46.405Z,71.54
2019-04-11T12:15:22.456Z,71.24
2019-04-11T12:20:49.341Z,71.34
2019-04-11T12:23:46.450Z,71.78
2019-04-11T12:26:05.326Z,71.57
2019-04-11T12:31:32.056Z,71.79
2019-04-11T12:34:16.555Z,71.41
2019-04-11T12:36:50.133Z,71.25
2019-04-11T12:39:24.546Z,71.14
2019-04-11T12:41:59.495Z,70.97
2019-04-11T12:47:19.517Z,71.32
2019-04-11T12:49:52.715Z,72.02
2019-04-11T12:52:20.437Z,72.38
2019-04-11T12:54:54.467Z,72.31
2019-04-11T12:57:39.142Z,72.70
2019-04-11T13:00:16.157Z,72.99
2019-04-11T13:03:00.547Z,72.79
2019-04-11T13:05:53.817Z,73.11
2019-04-11T13:08:33.918Z,73.59
2019-04-11T13:11:06.329Z,73.47
2019-04-11T13:13:34.405Z,74.12
2019-04-11T13:16:12.072Z,74.21
2019-04-11T13:18:50.540Z,74.48
2019-04-11T13:21:18.626Z,74.71
2019-04-11T13:26:53.681Z,75.76
2019-04-11T13:29:21.606Z,75.63
2019-04-11T13:31:52.651Z,75.59
2019-04-11T13:34:19.780Z,75.61
2019-04-11T13:36:50.405Z,76.49
2019-04-11T13:39:16.667Z,76.47
2019-04-11T13:41:44.679Z,76.36
2019-04-11T13:44:12.730Z,76.33
2019-04-11T13:46:57.122Z,76.14
2019-04-11T13:49:34.477Z,76.08
2019-04-11T13:52:05.755Z,76.52
2019-04-11T13:54:45.648Z,76.99
2019-04-11T14:00:30.771Z,77.40
2019-04-11T14:03:02.141Z,77.64
2019-04-11T14:05:30.175Z,77.40
2019-04-11T14:07:57.919Z,77.32
2019-04-11T14:10:24.045Z,77.23
2019-04-11T14:12:52.098Z,76.97
2019-04-11T14:15:22.381Z,76.66
2019-04-11T14:17:53.230Z,76.11
2019-04-11T14:23:23.528Z,75.70
2019-04-11T14:28:56.962Z,75.61
2019-04-11T14:31:36.988Z,75.59
2019-04-11T14:37:00.625Z,76.33
2019-04-11T14:39:28.697Z,76.09
2019-04-11T14:42:05.488Z,75.70
2019-04-11T14:44:33.602Z,75.50
2019-04-11T14:47:01.668Z,75.73
2019-04-11T14:49:28.307Z,75.48
2019-04-11T14:52:16.914Z,75.31
2019-04-11T14:54:43.104Z,75.18
2019-04-11T14:57:11.044Z,75.08
2019-04-11T14:59:39.106Z,74.98
2019-04-11T15:02:19.060Z,74.93
2019-04-11T15:04:58.812Z,74.77
2019-04-11T15:07:24.985Z,74.76
2019-04-11T15:10:01.881Z,75.14
2019-04-11T15:12:32.483Z,75.28
2019-04-11T15:15:12.509Z,75.09
2019-04-11T15:17:40.548Z,74.98
2019-04-11T15:20:15.553Z,74.93
2019-04-11T15:22:46.550Z,75.07
2019-04-11T15:25:14.576Z,76.05
2019-04-11T15:30:32.079Z,76.85
2019-04-11T15:33:05.788Z,76.63
2019-04-11T15:35:31.853Z,76.34
2019-04-11T15:40:45.437Z,75.90
2019-04-11T15:43:28.635Z,75.70
2019-04-11T15:46:01.285Z,75.83
2019-04-11T15:51:19.531Z,75.73
2019-04-11T15:53:47.573Z,75.50
2019-04-11T15:56:32.537Z,75.49
2019-04-11T15:59:00.599Z,75.48
2019-04-11T16:01:47.144Z,75.57
2019-04-11T16:04:17.573Z,75.62
2019-04-11T16:07:02.201Z,75.50
2019-04-11T16:09:28.218Z,75.45
2019-04-11T16:11:58.917Z,75.56
2019-04-11T16:14:24.926Z,75.78
2019-04-11T16:16:53.029Z,75.65
2019-04-11T16:19:36.209Z,75.72
2019-04-11T16:22:10.232Z,75.72
2019-04-11T16:24:41.094Z,75.85
2019-04-11T16:27:25.709Z,76.02
2019-04-11T16:29:53.688Z,75.99
2019-04-11T16:32:19.812Z,76.00
2019-04-11T16:34:54.371Z,76.07
2019-04-11T16:37:19.389Z,76.28
2019-04-11T16:40:05.665Z,76.40
2019-04-11T16:42:33.714Z,76.50
2019-04-11T16:45:01.769Z,76.68
2019-04-11T16:47:48.006Z,76.56
2019-04-11T16:50:14.166Z,76.38
2019-04-11T16:52:40.303Z,76.28
2019-04-11T16:55:09.799Z,76.21
2019-04-11T16:57:34.567Z,76.29
2019-04-11T17:00:00.694Z,76.35
2019-04-11T17:02:28.960Z,76.31
2019-04-11T17:04:55.894Z,76.61
2019-04-11T17:07:26.143Z,76.38
2019-04-11T17:09:57.493Z,76.26
2019-04-11T17:12:26.307Z,76.34
2019-04-11T17:14:51.780Z,76.46
2019-04-11T17:17:17.936Z,76.48
2019-04-11T17:19:44.057Z,76.39
2019-04-11T17:22:10.081Z,76.42
2019-04-11T17:24:36.226Z,76.46
2019-04-11T17:27:02.357Z,76.51
2019-04-11T17:29:28.381Z,76.55
2019-04-11T17:31:56.135Z,76.63
2019-04-11T17:34:22.571Z,76.57
2019-04-11T17:36:48.820Z,76.59
2019-04-11T17:39:15.049Z,76.71
2019-04-11T17:41:42.034Z,76.81
2019-04-11T17:44:08.736Z,76.87
2019-04-11T17:46:34.871Z,76.88
2019-04-11T17:49:00.995Z,76.79
2019-04-11T17:51:27.179Z,76.90
2019-04-11T17:53:55.497Z,76.77
2019-04-11T17:56:24.656Z,76.81
2019-04-11T17:58:49.306Z,76.73
2019-04-11T18:01:15.581Z,76.69
2019-04-11T18:03:42.610Z,76.91
2019-04-11T18:06:08.960Z,77.05
2019-04-11T18:08:35.096Z,77.01
2019-04-11T18:11:01.230Z,77.07
2019-04-11T18:13:30.622Z,76.98
2019-04-11T18:15:55.398Z,77.01
2019-04-11T18:18:21.457Z,77.09
2019-04-11T18:20:47.511Z,77.25
2019-04-11T18:23:13.629Z,77.32
2019-04-11T18:25:39.784Z,77.20
2019-04-11T18:28:05.843Z,77.42
2019-04-11T18:30:31.870Z,77.67
2019-04-11T18:32:58.004Z,78.00
2019-04-11T18:35:24.056Z,78.23
2019-04-11T18:37:50.220Z,78.73
2019-04-11T18:40:16.674Z,78.77
2019-04-11T18:42:42.954Z,78.95
2019-04-11T18:45:09.168Z,78.85
2019-04-11T18:47:35.338Z,78.72
2019-04-11T18:50:02.057Z,78.95
2019-04-11T18:52:29.126Z,79.33
2019-04-11T18:54:55.332Z,79.52
2019-04-11T18:57:21.455Z,79.77
2019-04-11T18:59:47.573Z,80.23
2019-04-11T19:02:13.694Z,80.07
2019-04-11T19:04:42.150Z,79.86
2019-04-11T19:07:08.099Z,79.56
2019-04-11T19:09:34.437Z,80.24
2019-04-11T19:12:00.797Z,80.40
2019-04-11T19:14:26.926Z,80.43
2019-04-11T19:16:53.160Z,80.40
2019-04-11T19:19:19.399Z,80.64
2019-04-11T19:21:45.948Z,80.92
2019-04-11T19:24:13.016Z,80.83
2019-04-11T19:26:39.299Z,80.68
2019-04-11T19:29:06.289Z,80.48
2019-04-11T19:31:32.570Z,80.71
2019-04-11T19:33:58.719Z,80.59
2019-04-11T19:36:24.851Z,80.71
2019-04-11T19:38:50.973Z,80.75
2019-04-11T19:41:18.225Z,80.82
2019-04-11T19:43:44.444Z,80.93
2019-04-11T19:46:10.584Z,81.13
2019-04-11T19:48:36.699Z,80.85
2019-04-11T19:51:02.824Z,80.53
2019-04-11T19:53:32.759Z,79.83
2019-04-11T19:55:58.812Z,79.82
2019-04-11T19:58:26.857Z,79.41
2019-04-11T20:00:53.960Z,79.75
2019-04-11T20:03:21.859Z,79.94
2019-04-11T20:05:48.039Z,79.96
2019-04-11T20:08:14.060Z,79.68
2019-04-11T20:10:40.104Z,79.16
2019-04-11T20:13:06.231Z,79.43
2019-04-11T20:15:37.232Z,79.66
2019-04-11T20:18:00.358Z,79.44
2019-04-11T20:20:26.526Z,79.40
2019-04-11T20:22:58.960Z,79.53
2019-04-11T20:25:20.685Z,79.41
2019-04-11T20:27:48.159Z,79.72
2019-04-11T20:30:14.767Z,79.89
2019-04-11T20:32:40.922Z,79.96
2019-04-11T20:35:09.490Z,79.67
2019-04-11T20:37:39.453Z,79.36
2019-04-11T20:40:06.034Z,79.43
2019-04-11T20:42:32.146Z,79.34
2019-04-11T20:44:59.087Z,79.36
2019-04-11T20:47:25.338Z,79.15
2019-04-11T20:49:51.512Z,78.89
2019-04-11T20:52:17.629Z,78.52
2019-04-11T20:54:45.268Z,78.65
2019-04-11T20:57:12.163Z,78.37
2019-04-11T20:59:42.309Z,78.25
2019-04-11T21:02:06.994Z,78.85
2019-04-11T21:04:33.028Z,78.96
2019-04-11T21:07:01.801Z,78.80
2019-04-11T21:09:27.205Z,78.73
2019-04-11T21:11:53.267Z,78.25
2019-04-11T21:14:19.290Z,78.17
2019-04-11T21:16:45.376Z,78.17
2019-04-11T21:19:11.497Z,78.14
2019-04-11T21:21:37.520Z,77.67
2019-04-11T21:24:03.655Z,77.70
2019-04-11T21:26:29.792Z,78.45
2019-04-11T21:28:58.762Z,78.42
2019-04-11T21:31:23.834Z,78.39
2019-04-11T21:33:49.990Z,78.61
2019-04-11T21:36:16.120Z,78.78
2019-04-11T21:38:42.066Z,79.01
2019-04-11T21:41:08.090Z,78.91
2019-04-11T21:43:36.197Z,78.45
2019-04-11T21:46:04.098Z,78.58
2019-04-11T21:48:30.105Z,78.03
2019-04-11T21:50:56.272Z,78.17
2019-04-11T21:53:22.411Z,78.17
2019-04-11T21:55:48.555Z,78.37
2019-04-11T21:58:14.573Z,77.95
2019-04-11T22:00:44.405Z,77.89
2019-04-11T22:03:10.534Z,77.57
2019-04-11T22:05:36.969Z,77.73
2019-04-11T22:08:04.013Z,77.90
2019-04-11T22:10:30.137Z,78.44
2019-04-11T22:12:56.304Z,78.93
2019-04-11T22:15:22.435Z,79.15
2019-04-11T22:17:48.654Z,78.74
2019-04-11T22:20:16.596Z,78.83
2019-04-11T22:22:42.801Z,78.37
2019-04-11T22:25:09.103Z,79.54
2019-04-11T22:27:35.226Z,79.84
2019-04-11T22:30:01.570Z,79.61
2019-04-11T22:32:27.696Z,79.59
2019-04-11T22:34:53.831Z,79.32
2019-04-11T22:37:19.899Z,79.32
2019-04-11T22:39:46.030Z,79.55
2019-04-11T22:42:12.251Z,80.38
2019-04-11T22:44:38.674Z,80.16
2019-04-11T22:47:07.554Z,80.15
2019-04-11T22:49:32.821Z,80.37
2019-04-11T22:51:58.992Z,80.31
2019-04-11T22:54:25.132Z,80.10
2019-04-11T22:56:51.254Z,80.07
2019-04-11T22:59:17.374Z,80.18
2019-04-11T23:01:46.802Z,79.48
2019-04-11T23:04:12.038Z,79.50
2019-04-11T23:06:38.159Z,79.46
2019-04-11T23:09:05.187Z,79.82
2019-04-11T23:11:31.232Z,79.60
2019-04-11T23:13:57.287Z,79.54
2019-04-11T23:16:23.721Z,79.67
2019-04-11T23:18:49.743Z,79.74
2019-04-11T23:21:15.876Z,79.82
2019-04-11T23:23:42.003Z,79.70
2019-04-11T23:26:08.166Z,79.77
2019-04-11T23:28:34.092Z,79.53
2019-04-11T23:31:00.136Z,79.59
2019-04-11T23:33:26.266Z,79.27
2019-04-11T23:35:52.293Z,79.32
2019-04-11T23:38:18.423Z,79.81
2019-04-11T23:40:44.457Z,80.01
2019-04-11T23:43:10.576Z,80.46
2019-04-11T23:45:36.696Z,80.63
2019-04-11T23:48:02.966Z,80.74
2019-04-11T23:50:29.092Z,80.65
2019-04-11T23:52:57.924Z,79.99
2019-04-11T23:55:23.293Z,79.66
2019-04-11T23:57:49.414Z,79.48
